sensor_id;sensor_type;location;lat;lon;timestamp;pressure;altitude;pressure_sealevel;temperature;humidity
39823;BME280;25499;53.958;10.970;2023-02-12T13:45:16;103551.84;;;8.62;100.00
39823;BME280;25499;53.958;10.970;2023-02-12T13:50:55;103549.41;;;8.65;100.00
39823;BME280;25499;53.958;10.970;2023-02-12T13:56:12;103541.41;;;8.78;100.00
39823;BME280;25499;53.958;10.970;2023-02-12T13:58:52;103542.69;;;8.86;100.00
39823;BME280;25499;53.958;10.970;2023-02-12T14:01:38;103541.16;;;8.73;100.00
39823;BME280;25499;53.958;10.970;2023-02-12T14:04:27;103538.97;;;8.81;100.00
39823;BME280;25499;53.958;10.970;2023-02-12T14:07:03;103532.47;;;8.55;100.00
39823;BME280;25499;53.958;10.970;2023-02-12T14:12:00;103532.53;;;8.56;100.00
39823;BME280;25499;53.958;10.970;2023-02-12T14:14:38;103532.84;;;8.63;100.00
39823;BME280;25499;53.958;10.970;2023-02-12T14:17:39;103532.56;;;8.74;100.00
39823;BME280;25499;53.958;10.970;2023-02-12T14:20:27;103531.19;;;8.81;100.00
39823;BME280;25499;53.958;10.970;2023-02-12T14:25:43;103527.06;;;8.68;100.00
39823;BME280;25499;53.958;10.970;2023-02-12T14:30:37;103525.97;;;8.47;100.00
39823;BME280;25499;53.958;10.970;2023-02-12T14:35:36;103516.88;;;8.55;100.00
39823;BME280;25499;53.958;10.970;2023-02-12T14:41:22;103515.13;;;8.54;100.00
39823;BME280;25499;53.958;10.970;2023-02-12T14:46:58;103517.16;;;8.43;100.00
39823;BME280;25499;53.958;10.970;2023-02-12T14:49:39;103514.44;;;8.41;100.00
39823;BME280;25499;53.958;10.970;2023-02-12T14:54:48;103515.47;;;8.44;100.00
39823;BME280;25499;53.958;10.970;2023-02-12T14:59:54;103513.84;;;8.46;100.00
39823;BME280;25499;53.958;10.970;2023-02-12T15:02:26;103512.34;;;8.34;100.00
39823;BME280;25499;53.958;10.970;2023-02-12T15:04:58;103509.22;;;8.24;100.00
39823;BME280;25499;53.958;10.970;2023-02-12T15:07:40;103520.91;;;8.32;100.00
39823;BME280;25499;53.958;10.970;2023-02-12T15:10:15;103520.31;;;8.37;100.00
39823;BME280;25499;53.958;10.970;2023-02-12T15:12:46;103519.69;;;8.25;100.00
39823;BME280;25499;53.958;10.970;2023-02-12T15:15:22;103522.19;;;8.24;100.00
39823;BME280;25499;53.958;10.970;2023-02-12T15:18:09;103520.91;;;8.15;100.00
39823;BME280;25499;53.958;10.970;2023-02-12T15:21:02;103524.00;;;8.08;100.00
39823;BME280;25499;53.958;10.970;2023-02-12T15:26:23;103524.31;;;8.14;100.00
39823;BME280;25499;53.958;10.970;2023-02-12T15:28:52;103518.81;;;8.08;100.00
39823;BME280;25499;53.958;10.970;2023-02-12T15:31:21;103516.59;;;8.16;100.00
39823;BME280;25499;53.958;10.970;2023-02-12T15:33:51;103521.25;;;8.21;100.00
39823;BME280;25499;53.958;10.970;2023-02-12T15:36:21;103521.72;;;8.14;100.00
39823;BME280;25499;53.958;10.970;2023-02-12T15:38:51;103525.75;;;8.09;100.00
39823;BME280;25499;53.958;10.970;2023-02-12T15:41:47;103538.28;;;8.00;100.00
39823;BME280;25499;53.958;10.970;2023-02-12T15:44:18;103542.34;;;8.11;100.00
39823;BME280;25499;53.958;10.970;2023-02-12T15:49:37;103538.91;;;8.12;100.00
39823;BME280;25499;53.958;10.970;2023-02-12T15:52:08;103540.53;;;8.10;100.00
39823;BME280;25499;53.958;10.970;2023-02-12T15:54:35;103532.19;;;7.99;100.00
39823;BME280;25499;53.958;10.970;2023-02-12T15:57:09;103545.38;;;8.04;100.00
39823;BME280;25499;53.958;10.970;2023-02-12T15:59:35;103544.59;;;8.05;100.00
39823;BME280;25499;53.958;10.970;2023-02-12T16:02:01;103545.97;;;7.98;100.00
39823;BME280;25499;53.958;10.970;2023-02-12T16:04:32;103537.22;;;7.96;100.00
39823;BME280;25499;53.958;10.970;2023-02-12T16:06:59;103545.63;;;7.92;100.00
39823;BME280;25499;53.958;10.970;2023-02-12T16:09:32;103546.47;;;7.91;100.00
39823;BME280;25499;53.958;10.970;2023-02-12T16:12:01;103549.47;;;7.82;100.00
39823;BME280;25499;53.958;10.970;2023-02-12T16:14:48;103547.66;;;7.81;100.00
39823;BME280;25499;53.958;10.970;2023-02-12T16:20:05;103557.06;;;7.79;100.00
39823;BME280;25499;53.958;10.970;2023-02-12T16:22:38;103557.69;;;7.75;100.00
39823;BME280;25499;53.958;10.970;2023-02-12T16:25:15;103564.53;;;7.90;100.00
39823;BME280;25499;53.958;10.970;2023-02-12T16:27:50;103561.44;;;7.80;100.00
39823;BME280;25499;53.958;10.970;2023-02-12T16:30:32;103567.38;;;7.78;100.00
39823;BME280;25499;53.958;10.970;2023-02-12T16:32:58;103573.13;;;7.72;100.00
39823;BME280;25499;53.958;10.970;2023-02-12T16:38:00;103562.78;;;7.74;100.00
39823;BME280;25499;53.958;10.970;2023-02-12T16:40:30;103565.34;;;7.72;100.00
39823;BME280;25499;53.958;10.970;2023-02-12T16:42:58;103571.56;;;7.76;100.00
39823;BME280;25499;53.958;10.970;2023-02-12T16:50:34;103566.44;;;7.61;100.00
39823;BME280;25499;53.958;10.970;2023-02-12T16:55:48;103577.28;;;7.54;100.00
39823;BME280;25499;53.958;10.970;2023-02-12T16:58:14;103586.44;;;7.47;100.00
39823;BME280;25499;53.958;10.970;2023-02-12T17:00:39;103580.59;;;7.51;100.00
39823;BME280;25499;53.958;10.970;2023-02-12T17:03:05;103580.19;;;7.60;100.00
39823;BME280;25499;53.958;10.970;2023-02-12T17:05:30;103583.00;;;7.48;100.00
39823;BME280;25499;53.958;10.970;2023-02-12T17:07:56;103577.03;;;7.49;100.00
39823;BME280;25499;53.958;10.970;2023-02-12T17:10:21;103575.78;;;7.42;100.00
39823;BME280;25499;53.958;10.970;2023-02-12T17:12:49;103583.47;;;7.41;100.00
39823;BME280;25499;53.958;10.970;2023-02-12T17:15:26;103581.44;;;7.35;100.00
39823;BME280;25499;53.958;10.970;2023-02-12T17:17:53;103574.56;;;7.36;100.00
39823;BME280;25499;53.958;10.970;2023-02-12T17:20:19;103581.97;;;7.29;100.00
39823;BME280;25499;53.958;10.970;2023-02-12T17:22:49;103583.69;;;7.29;100.00
39823;BME280;25499;53.958;10.970;2023-02-12T17:25:15;103580.38;;;7.32;100.00
39823;BME280;25499;53.958;10.970;2023-02-12T17:27:40;103585.13;;;7.24;100.00
39823;BME280;25499;53.958;10.970;2023-02-12T17:30:06;103585.31;;;7.27;100.00
39823;BME280;25499;53.958;10.970;2023-02-12T17:32:32;103586.19;;;7.27;100.00
39823;BME280;25499;53.958;10.970;2023-02-12T17:34:57;103586.84;;;7.23;100.00
39823;BME280;25499;53.958;10.970;2023-02-12T17:37:23;103588.44;;;7.21;100.00
39823;BME280;25499;53.958;10.970;2023-02-12T17:39:49;103590.13;;;7.21;100.00
39823;BME280;25499;53.958;10.970;2023-02-12T17:42:15;103593.44;;;7.18;100.00
39823;BME280;25499;53.958;10.970;2023-02-12T17:44:40;103595.88;;;7.15;100.00
39823;BME280;25499;53.958;10.970;2023-02-12T17:47:06;103601.31;;;7.20;100.00
39823;BME280;25499;53.958;10.970;2023-02-12T17:49:31;103606.66;;;7.23;100.00
39823;BME280;25499;53.958;10.970;2023-02-12T17:51:59;103604.88;;;7.22;100.00
39823;BME280;25499;53.958;10.970;2023-02-12T17:54:24;103602.47;;;7.25;100.00
39823;BME280;25499;53.958;10.970;2023-02-12T17:56:50;103605.06;;;7.25;100.00
39823;BME280;25499;53.958;10.970;2023-02-12T17:59:15;103606.66;;;7.23;100.00
39823;BME280;25499;53.958;10.970;2023-02-12T18:01:40;103608.34;;;7.22;100.00
39823;BME280;25499;53.958;10.970;2023-02-12T18:04:06;103606.31;;;7.17;100.00
39823;BME280;25499;53.958;10.970;2023-02-12T18:06:31;103606.22;;;7.15;100.00
39823;BME280;25499;53.958;10.970;2023-02-12T18:08:58;103609.88;;;7.19;100.00
39823;BME280;25499;53.958;10.970;2023-02-12T18:11:26;103605.44;;;7.16;100.00
39823;BME280;25499;53.958;10.970;2023-02-12T18:13:53;103620.06;;;7.16;100.00
39823;BME280;25499;53.958;10.970;2023-02-12T18:16:20;103617.38;;;7.14;100.00
39823;BME280;25499;53.958;10.970;2023-02-12T18:18:47;103607.94;;;7.15;100.00
39823;BME280;25499;53.958;10.970;2023-02-12T18:21:14;103619.00;;;7.12;100.00
39823;BME280;25499;53.958;10.970;2023-02-12T18:23:40;103617.47;;;7.16;100.00
39823;BME280;25499;53.958;10.970;2023-02-12T18:26:07;103619.00;;;7.12;100.00
39823;BME280;25499;53.958;10.970;2023-02-12T18:28:34;103625.25;;;7.16;100.00
39823;BME280;25499;53.958;10.970;2023-02-12T18:30:59;103620.53;;;7.08;100.00
39823;BME280;25499;53.958;10.970;2023-02-12T18:33:25;103620.06;;;7.16;100.00
39823;BME280;25499;53.958;10.970;2023-02-12T18:36:15;103616.88;;;7.20;100.00
39823;BME280;25499;53.958;10.970;2023-02-12T18:38:42;103620.53;;;7.08;100.00
39823;BME280;25499;53.958;10.970;2023-02-12T18:41:10;103624.00;;;7.09;100.00
39823;BME280;25499;53.958;10.970;2023-02-12T18:43:36;103629.19;;;7.09;100.00
39823;BME280;25499;53.958;10.970;2023-02-12T18:46:16;103623.03;;;7.07;100.00
39823;BME280;25499;53.958;10.970;2023-02-12T18:48:42;103619.47;;;7.05;100.00
39823;BME280;25499;53.958;10.970;2023-02-12T18:51:09;103621.22;;;7.06;100.00
39823;BME280;25499;53.958;10.970;2023-02-12T18:53:37;103618.56;;;7.04;100.00
39823;BME280;25499;53.958;10.970;2023-02-12T18:56:04;103618.81;;;7.09;100.00
39823;BME280;25499;53.958;10.970;2023-02-12T18:58:30;103610.84;;;7.06;100.00
39823;BME280;25499;53.958;10.970;2023-02-12T19:00:56;103615.16;;;7.05;100.00
39823;BME280;25499;53.958;10.970;2023-02-12T19:03:22;103613.03;;;7.13;100.00
39823;BME280;25499;53.958;10.970;2023-02-12T19:05:47;103623.13;;;7.08;100.00
39823;BME280;25499;53.958;10.970;2023-02-12T19:08:13;103623.81;;;7.06;100.00
39823;BME280;25499;53.958;10.970;2023-02-12T19:10:39;103623.28;;;7.12;100.00
39823;BME280;25499;53.958;10.970;2023-02-12T19:13:06;103632.59;;;7.08;100.00
39823;BME280;25499;53.958;10.970;2023-02-12T19:15:32;103625.53;;;7.05;100.00
39823;BME280;25499;53.958;10.970;2023-02-12T19:17:58;103624.53;;;7.03;100.00
39823;BME280;25499;53.958;10.970;2023-02-12T19:20:23;103617.56;;;7.02;100.00
39823;BME280;25499;53.958;10.970;2023-02-12T19:22:48;103617.94;;;6.94;100.00
39823;BME280;25499;53.958;10.970;2023-02-12T19:25:14;103625.88;;;6.97;100.00
39823;BME280;25499;53.958;10.970;2023-02-12T19:27:39;103623.09;;;6.94;100.00
39823;BME280;25499;53.958;10.970;2023-02-12T19:30:06;103622.03;;;6.90;100.00
39823;BME280;25499;53.958;10.970;2023-02-12T19:32:32;103629.72;;;6.88;100.00
39823;BME280;25499;53.958;10.970;2023-02-12T19:34:57;103624.81;;;6.93;100.00
39823;BME280;25499;53.958;10.970;2023-02-12T19:37:23;103627.03;;;6.87;100.00
39823;BME280;25499;53.958;10.970;2023-02-12T19:39:48;103629.72;;;6.88;100.00
39823;BME280;25499;53.958;10.970;2023-02-12T19:42:14;103623.47;;;6.85;100.00
39823;BME280;25499;53.958;10.970;2023-02-12T19:44:41;103620.97;;;6.86;100.00
39823;BME280;25499;53.958;10.970;2023-02-12T19:47:06;103625.50;;;6.90;100.00
39823;BME280;25499;53.958;10.970;2023-02-12T19:49:33;103632.94;;;6.99;100.00
39823;BME280;25499;53.958;10.970;2023-02-12T19:51:58;103626.44;;;6.91;100.00
39823;BME280;25499;53.958;10.970;2023-02-12T19:54:24;103623.38;;;6.83;100.00
39823;BME280;25499;53.958;10.970;2023-02-12T19:56:50;103628.09;;;6.90;100.00
39823;BME280;25499;53.958;10.970;2023-02-12T19:59:19;103636.22;;;6.82;100.00
39823;BME280;25499;53.958;10.970;2023-02-12T20:01:46;103637.75;;;6.78;100.00
39823;BME280;25499;53.958;10.970;2023-02-12T20:04:14;103634.38;;;6.79;100.00
39823;BME280;25499;53.958;10.970;2023-02-12T20:06:41;103641.88;;;6.89;100.00
39823;BME280;25499;53.958;10.970;2023-02-12T20:09:09;103634.88;;;6.88;100.00
39823;BME280;25499;53.958;10.970;2023-02-12T20:11:36;103633.19;;;6.89;100.00
39823;BME280;25499;53.958;10.970;2023-02-12T20:14:04;103625.34;;;6.87;100.00
39823;BME280;25499;53.958;10.970;2023-02-12T20:16:30;103630.25;;;6.83;100.00
39823;BME280;25499;53.958;10.970;2023-02-12T20:19:04;103626.44;;;6.91;100.00
39823;BME280;25499;53.958;10.970;2023-02-12T20:21:30;103629.97;;;6.78;100.00
39823;BME280;25499;53.958;10.970;2023-02-12T20:23:57;103625.16;;;6.69;100.00
39823;BME280;25499;53.958;10.970;2023-02-12T20:26:23;103621.84;;;6.72;100.00
39823;BME280;25499;53.958;10.970;2023-02-12T20:28:49;103623.91;;;6.78;100.00
39823;BME280;25499;53.958;10.970;2023-02-12T20:31:23;103628.22;;;6.77;100.00
39823;BME280;25499;53.958;10.970;2023-02-12T20:33:53;103628.72;;;6.86;100.00
39823;BME280;25499;53.958;10.970;2023-02-12T20:36:19;103628.91;;;6.75;100.00
39823;BME280;25499;53.958;10.970;2023-02-12T20:38:44;103629.53;;;6.70;100.00
39823;BME280;25499;53.958;10.970;2023-02-12T20:41:10;103624.69;;;6.77;100.00
39823;BME280;25499;53.958;10.970;2023-02-12T20:43:36;103619.81;;;6.81;100.00
39823;BME280;25499;53.958;10.970;2023-02-12T20:46:10;103622.31;;;6.80;100.00
39823;BME280;25499;53.958;10.970;2023-02-12T20:48:38;103623.44;;;6.70;100.00
